ولاية سيدي بلعباس, Algeria

03:40 PM CET on لبراêر 26, 2017 (GMT +0100)
Es Senia | | Change Station

Elev 295 ft 35.63 °N, 0.60 °W | Updated 10 minutes ago

غائم جزئياً
غائم جزئياً
66 °F
Feels Like 66 °F
N
14
ريح متغير ريح from WSW

هذا اليوم
High -- | Low -- °F
--% Chance of Precip.
Yesterday
High -- | Low -- °F
Precip. -- في
الضغط 30.15 في
وضوح الرؤية 3.7 أميال
سحابات Few 1600 ft
غيوم متفرقة 2600 ft
نقطة الندى 54 °F
الرطوبة 64%
Rainfall 0.00 في
عمق الثلج Not available.
7:35 AM 6:55 PM
الهلال الأخير, 0% visible
METAR DAOO 261430Z 24012KT 6000 FEW016 SCT026 19/12 Q1021
الضغط 30.15 في
وضوح الرؤية 3.7 أميال
سحابات Few 1600 ft
غيوم متفرقة 2600 ft
نقطة الندى 54 °F
الرطوبة 64%
Rainfall 0.00 في
عمق الثلج Not available.
7:35 AM 6:55 PM
الهلال الأخير, 0% visible
METAR DAOO 261430Z 24012KT 6000 FEW016 SCT026 19/12 Q1021

Get Your Daily Forecast Email!

Thanks for signing up!

Be on the lookout for a verification email in your inbox.

You'll start receiving the daily forecast at 8 AM.

×

10-Day Weather Forecast

No radar image for this location.
×

Almanac

علم الفلك

Feb. 26, 2017 Rise Set
Actual Time
Civil Twilight
Nautical Twilight
Astronomical Twilight
قمر
Length Of Visible Light
طول الیوم
Tomorrow will be .
, % of the Moon is Illuminated

Today's Extremes

Country Highs Country Lows

Community

WunderPhotos

Upload Photos

1,962,540 photos uploaded!

WunderBlog® & News

Nearby

جودة الهواء

  جودة الهواء AQ Index Pollutant
Not available.

عمق الثلج

Station Depth Elevation

Earthquake Activity

City Distance Mag. Time & Date
Minimum magnitude displayed is 2.5.

Coastal Water Temperatures

مكان درجات الحرارة

Stations

Nearby Weather Stations

Station Location الحرارة رياح باردة نقطة الندى الرطوبة ريح Precip. Elev تحديث Type